Time;durP1;ratioP1;P1;durP2;ratioP2;P2;SDS_P1;SDS_P2;PMS_P1;PMS_P2;Temp;Humidity;BMP_temperature;BMP_pressure;BME280_temperature;BME280_humidity;BME280_pressure;Samples;Min_cycle;Max_cycle;Signal;HPM_P1;HPM_P2
2022/12/15 00:40:58;;;;;;;3.78;2.83;;;24.90;49.30;;;;;;5013839;28;20240;-38
2022/12/15 00:43:29;;;;;;;4.00;2.85;;;25.00;49.30;;;;;;5012382;28;20201;-38
2022/12/15 00:48:46;;;;;;;4.95;2.90;;;25.00;49.40;;;;;;5014711;28;20894;-41
2022/12/15 00:51:16;;;;;;;3.60;3.10;;;25.00;49.40;;;;;;5012504;28;20207;-42
2022/12/15 01:21:36;;;;;;;3.60;2.83;;;25.30;49.60;;;;;;5012248;28;20260;-38
2022/12/15 01:24:07;;;;;;;4.05;2.53;;;25.30;49.60;;;;;;5011063;28;20201;-37
2022/12/15 01:26:40;;;;;;;3.83;2.72;;;25.40;49.70;;;;;;5012010;28;20602;-38
2022/12/15 01:29:11;;;;;;;3.67;2.80;;;25.40;49.80;;;;;;5014867;28;20192;-38
2022/12/15 01:31:42;;;;;;;3.33;2.58;;;25.40;49.80;;;;;;5031713;28;20200;-38
2022/12/15 01:34:13;;;;;;;4.40;2.95;;;25.50;49.90;;;;;;5012341;28;20226;-43
2022/12/15 01:36:44;;;;;;;5.95;2.80;;;25.50;49.90;;;;;;5011673;28;20224;-38
2022/12/15 01:39:14;;;;;;;3.60;2.33;;;25.50;49.80;;;;;;5011338;28;20641;-38
2022/12/15 01:41:45;;;;;;;3.83;2.65;;;25.50;49.80;;;;;;4906853;28;3268232;-38
2022/12/15 01:44:23;;;;;;;4.97;2.80;;;25.60;49.80;;;;;;5012097;28;20209;-38
2022/12/15 01:46:57;;;;;;;4.78;2.65;;;25.60;49.90;;;;;;5012257;28;20227;-39
2022/12/15 01:49:30;;;;;;;5.85;2.75;;;25.60;50.00;;;;;;4998350;28;20201;-38
2022/12/15 01:52:03;;;;;;;3.35;2.70;;;25.60;50.00;;;;;;5011942;28;20228;-38
2022/12/15 01:54:37;;;;;;;3.65;2.58;;;25.60;49.80;;;;;;5017415;28;20200;-40
2022/12/15 01:57:15;;;;;;;5.72;2.78;;;25.60;49.80;;;;;;5012079;28;20231;-38
2022/12/15 01:59:49;;;;;;;5.15;2.47;;;25.70;49.90;;;;;;5012390;28;20200;-38
2022/12/15 02:02:21;;;;;;;5.05;2.53;;;25.70;50.00;;;;;;5012300;28;20612;-38
2022/12/15 02:04:55;;;;;;;3.92;2.70;;;25.70;50.00;;;;;;5003516;28;20216;-40
2022/12/15 02:07:26;;;;;;;4.28;2.50;;;25.80;50.10;;;;;;5000128;28;20213;-38
2022/12/15 02:10:00;;;;;;;3.08;2.22;;;25.80;50.00;;;;;;5010510;28;20197;-38
2022/12/15 02:12:41;;;;;;;4.93;2.88;;;25.80;49.90;;;;;;5012219;28;20228;-38
2022/12/15 02:15:21;;;;;;;4.90;2.70;;;25.80;50.00;;;;;;5011353;28;20212;-38
2022/12/15 02:17:59;;;;;;;2.50;2.00;;;25.80;50.00;;;;;;5011362;28;20201;-38
2022/12/15 02:20:50;;;;;;;3.22;2.30;;;25.90;50.00;;;;;;5011595;28;20199;-38
2022/12/15 02:23:57;;;;;;;6.15;2.85;;;25.90;50.10;;;;;;5011284;28;20220;-40
2022/12/15 02:26:49;;;;;;;3.40;2.63;;;25.90;50.00;;;;;;5011843;28;20252;-40
2022/12/15 02:29:44;;;;;;;4.57;2.78;;;25.90;49.90;;;;;;5011564;28;20204;-40
2022/12/15 02:32:19;;;;;;;3.97;2.47;;;26.00;50.00;;;;;;5014154;28;20239;-43
2022/12/15 02:34:55;;;;;;;3.58;2.22;;;26.00;49.90;;;;;;5011177;28;20204;-39
2022/12/15 02:37:29;;;;;;;4.07;2.28;;;26.00;50.00;;;;;;5010984;28;20586;-38
2022/12/15 02:40:00;;;;;;;4.40;2.65;;;26.00;50.00;;;;;;5011499;28;20221;-38
2022/12/15 02:42:32;;;;;;;3.67;2.50;;;26.00;50.00;;;;;;5010737;28;20211;-40
2022/12/15 02:45:04;;;;;;;3.65;2.33;;;26.10;50.00;;;;;;5010907;28;20688;-38
2022/12/15 02:47:44;;;;;;;5.05;2.20;;;26.10;50.00;;;;;;5010948;28;20255;-38
2022/12/15 02:50:30;;;;;;;3.50;2.20;;;26.10;49.90;;;;;;5011504;28;20219;-46
2022/12/15 02:53:17;;;;;;;4.57;2.65;;;26.10;49.90;;;;;;5012538;28;20236;-38
2022/12/15 02:55:58;;;;;;;4.50;2.80;;;26.20;49.90;;;;;;5031416;28;20219;-40
2022/12/15 02:58:35;;;;;;;5.88;2.50;;;26.20;49.90;;;;;;5022408;28;20200;-37
2022/12/15 03:01:11;;;;;;;4.78;2.72;;;26.20;49.90;;;;;;5011304;28;20211;-38
2022/12/15 03:03:46;;;;;;;2.80;1.98;;;26.20;49.90;;;;;;5011092;28;20240;-38
2022/12/15 03:06:17;;;;;;;3.35;2.20;;;26.20;49.90;;;;;;5007897;28;20236;-40
2022/12/15 03:08:48;;;;;;;4.35;2.22;;;26.20;49.90;;;;;;5001120;28;20244;-45
2022/12/15 03:11:19;;;;;;;4.43;2.47;;;26.20;49.90;;;;;;5010191;28;20609;-39
2022/12/15 03:13:50;;;;;;;4.38;2.30;;;26.30;49.90;;;;;;5009819;28;20228;-38
2022/12/15 03:16:20;;;;;;;3.83;2.15;;;26.30;49.90;;;;;;5010350;28;20213;-38
2022/12/15 03:18:53;;;;;;;4.85;2.20;;;26.30;49.90;;;;;;5011157;28;20193;-38
2022/12/15 03:21:24;;;;;;;4.00;2.30;;;26.30;49.90;;;;;;5010935;28;20208;-37
2022/12/15 03:23:55;;;;;;;4.35;2.45;;;26.30;49.80;;;;;;5010633;28;20200;-39
2022/12/15 03:26:25;;;;;;;3.70;2.22;;;26.40;49.80;;;;;;5010400;28;20216;-39
2022/12/15 03:28:56;;;;;;;3.30;1.95;;;26.40;49.80;;;;;;5010618;28;20566;-38
2022/12/15 03:31:27;;;;;;;3.55;2.22;;;26.40;49.80;;;;;;5010815;28;20274;-38
2022/12/15 03:34:00;;;;;;;4.63;2.03;;;26.40;49.80;;;;;;5010097;28;20224;-38
2022/12/15 03:36:31;;;;;;;3.47;2.08;;;26.40;49.80;;;;;;5010284;28;20228;-41
2022/12/15 03:39:02;;;;;;;4.47;1.98;;;26.40;49.80;;;;;;5010624;28;20214;-38
2022/12/15 03:41:33;;;;;;;5.13;2.63;;;26.50;49.80;;;;;;5010583;28;20640;-38
2022/12/15 03:44:04;;;;;;;5.30;2.63;;;26.50;49.80;;;;;;5010876;28;20204;-38
2022/12/15 03:46:34;;;;;;;3.67;2.00;;;26.50;49.80;;;;;;5010546;28;20221;-38
2022/12/15 03:49:07;;;;;;;2.58;1.90;;;26.50;49.70;;;;;;5011173;28;20702;-43
2022/12/15 03:51:39;;;;;;;4.97;2.22;;;26.60;49.80;;;;;;5011014;28;20197;-38
2022/12/15 03:54:09;;;;;;;2.85;1.85;;;26.60;49.80;;;;;;5010950;28;20261;-39
2022/12/15 03:56:40;;;;;;;3.95;2.03;;;26.60;49.90;;;;;;4995188;28;20246;-42
2022/12/15 03:59:11;;;;;;;3.53;2.03;;;26.60;49.80;;;;;;5001231;28;20648;-41
2022/12/15 04:01:49;;;;;;;3.20;1.92;;;26.60;49.80;;;;;;5009964;28;20203;-40
2022/12/15 04:04:21;;;;;;;2.65;1.80;;;26.70;49.90;;;;;;5012854;28;20200;-41
2022/12/15 04:06:52;;;;;;;2.78;1.85;;;26.70;49.90;;;;;;5006608;28;20746;-39
2022/12/15 04:09:23;;;;;;;4.13;2.38;;;26.70;49.80;;;;;;5006557;28;20193;-39
2022/12/15 04:11:53;;;;;;;2.67;1.70;;;26.80;49.90;;;;;;5014599;28;20203;-40
2022/12/15 04:14:25;;;;;;;4.10;2.25;;;26.80;49.80;;;;;;5006447;28;20584;-38
2022/12/15 04:16:55;;;;;;;3.55;2.13;;;26.80;49.70;;;;;;5010581;28;20715;-40
2022/12/15 04:22:15;;;;;;;5.05;2.30;;;26.90;50.40;;;;;;5014109;28;20331;-38
2022/12/15 05:31:53;;;;;;;4.20;1.65;;;27.40;49.60;;;;;;5012946;28;20200;-38
2022/12/15 05:34:26;;;;;;;3.72;1.73;;;27.40;49.60;;;;;;5012843;28;20224;-38
2022/12/15 05:36:58;;;;;;;6.13;2.00;;;27.40;49.60;;;;;;5012608;28;20228;-39
2022/12/15 05:39:28;;;;;;;4.70;2.05;;;27.40;49.50;;;;;;5012601;28;20675;-39
2022/12/15 05:42:02;;;;;;;4.47;1.65;;;27.40;49.60;;;;;;5012793;28;20664;-38
2022/12/15 05:44:32;;;;;;;3.05;1.83;;;27.40;49.60;;;;;;5012334;28;20708;-39
2022/12/15 05:47:03;;;;;;;4.68;1.75;;;27.40;49.70;;;;;;5012158;28;20221;-41
2022/12/15 05:49:34;;;;;;;2.28;1.40;;;27.40;49.70;;;;;;5012160;28;20196;-39
2022/12/15 05:52:05;;;;;;;4.60;2.28;;;27.40;49.70;;;;;;5012229;28;20228;-39
2022/12/15 05:54:36;;;;;;;4.40;2.17;;;27.40;49.70;;;;;;5004075;28;20236;-38
2022/12/15 05:57:08;;;;;;;4.60;2.10;;;27.40;49.70;;;;;;5010015;28;20711;-44
2022/12/15 05:59:39;;;;;;;5.07;2.35;;;27.40;49.80;;;;;;5011511;28;20193;-42
2022/12/15 06:02:10;;;;;;;3.47;2.25;;;27.40;49.70;;;;;;5010172;28;20193;-41
2022/12/15 06:04:40;;;;;;;6.93;2.90;;;27.40;50.30;;;;;;5009097;28;20219;-43
2022/12/15 06:07:11;;;;;;;5.80;2.40;;;27.40;49.70;;;;;;5008526;28;20247;-41
2022/12/15 06:09:42;;;;;;;4.20;2.28;;;27.40;49.70;;;;;;5012228;28;20201;-38
2022/12/15 06:12:15;;;;;;;3.55;1.83;;;27.40;49.70;;;;;;5012008;28;20208;-43
2022/12/15 06:14:46;;;;;;;4.20;2.50;;;27.40;49.70;;;;;;5008155;28;20595;-39
2022/12/15 06:17:16;;;;;;;4.50;2.80;;;27.40;49.60;;;;;;5011459;28;20231;-40
2022/12/15 06:19:47;;;;;;;3.95;2.83;;;27.40;49.60;;;;;;5011530;28;20193;-38
2022/12/15 06:22:18;;;;;;;4.38;2.72;;;27.40;49.60;;;;;;5011678;28;20220;-40
2022/12/15 06:24:50;;;;;;;4.30;2.53;;;27.40;49.60;;;;;;5011469;28;20350;-41
2022/12/15 06:27:23;;;;;;;4.43;2.45;;;27.40;49.50;;;;;;5009998;28;20253;-40
2022/12/15 06:29:54;;;;;;;4.45;2.50;;;27.40;49.60;;;;;;5011217;28;20200;-39
2022/12/15 06:32:25;;;;;;;5.53;2.67;;;27.40;49.50;;;;;;5011446;28;20220;-45
2022/12/15 06:34:55;;;;;;;4.60;2.45;;;27.40;49.50;;;;;;5010864;28;20227;-42
2022/12/15 06:37:26;;;;;;;3.75;2.83;;;27.40;49.50;;;;;;5013756;28;20224;-39
2022/12/15 06:39:57;;;;;;;3.25;2.35;;;27.40;49.50;;;;;;5011036;28;20664;-40
2022/12/15 06:42:29;;;;;;;4.22;2.20;;;27.40;49.40;;;;;;5011106;28;20193;-41
2022/12/15 06:45:00;;;;;;;3.72;2.17;;;27.40;49.40;;;;;;5011134;28;20193;-43
2022/12/15 06:47:31;;;;;;;3.33;2.05;;;27.40;49.40;;;;;;5011822;28;20243;-39
2022/12/15 06:50:01;;;;;;;4.55;2.60;;;27.40;49.40;;;;;;5011115;28;20189;-43
2022/12/15 06:52:32;;;;;;;3.20;2.30;;;27.40;49.40;;;;;;5004291;28;20205;-42
2022/12/15 06:55:03;;;;;;;4.50;2.63;;;27.40;49.40;;;;;;5010281;28;20231;-37
2022/12/15 06:57:35;;;;;;;3.55;2.45;;;27.30;49.40;;;;;;5011060;28;20220;-38
2022/12/15 07:00:07;;;;;;;4.38;2.40;;;27.40;49.40;;;;;;5013035;28;20196;-38
2022/12/15 07:02:38;;;;;;;3.28;2.50;;;27.40;49.40;;;;;;5010535;28;20200;-37
2022/12/15 07:05:09;;;;;;;4.65;2.60;;;27.30;49.40;;;;;;5011295;28;20201;-38
2022/12/15 07:07:40;;;;;;;3.83;2.13;;;27.30;49.40;;;;;;5010718;28;20259;-36
2022/12/15 07:10:12;;;;;;;4.45;2.50;;;27.30;49.40;;;;;;5011334;28;20203;-36
2022/12/15 07:12:44;;;;;;;3.60;2.00;;;27.30;49.40;;;;;;5011061;28;20538;-36
2022/12/15 07:15:15;;;;;;;2.55;2.05;;;27.30;49.40;;;;;;5010858;28;20334;-36
2022/12/15 07:17:46;;;;;;;3.60;2.08;;;27.30;49.40;;;;;;5011004;28;20197;-36
2022/12/15 07:20:17;;;;;;;3.70;2.47;;;27.30;49.40;;;;;;5010792;28;20606;-37
2022/12/15 07:22:53;;;;;;;4.68;2.15;;;27.20;49.40;;;;;;5010986;28;20282;-36
2022/12/15 07:25:24;;;;;;;5.05;2.28;;;27.20;49.40;;;;;;5010909;28;20208;-36
2022/12/15 07:27:56;;;;;;;2.33;1.65;;;27.20;49.30;;;;;;5010800;28;20648;-36
2022/12/15 07:30:27;;;;;;;3.42;1.88;;;27.20;49.30;;;;;;5010484;28;20611;-36
2022/12/15 07:32:58;;;;;;;2.88;2.10;;;27.10;49.30;;;;;;5011181;28;20204;-36
2022/12/15 07:35:29;;;;;;;2.95;2.00;;;27.20;49.40;;;;;;5011060;28;20228;-36
2022/12/15 07:38:00;;;;;;;2.25;1.83;;;27.20;49.40;;;;;;5010566;28;20205;-36
2022/12/15 07:40:30;;;;;;;2.40;1.80;;;27.10;49.30;;;;;;5010614;28;20212;-36
2022/12/15 07:43:03;;;;;;;2.70;2.00;;;27.10;49.30;;;;;;5010680;28;20200;-36
2022/12/15 07:45:35;;;;;;;2.42;1.70;;;27.10;49.40;;;;;;5011068;28;20715;-45
2022/12/15 07:48:06;;;;;;;2.90;2.08;;;27.00;49.30;;;;;;5011119;28;20553;-38
2022/12/15 07:50:38;;;;;;;3.80;2.17;;;27.00;49.20;;;;;;5008838;28;20236;-38
2022/12/15 07:53:09;;;;;;;3.15;2.10;;;27.00;49.30;;;;;;5010117;28;20204;-38
2022/12/15 07:55:39;;;;;;;2.30;1.92;;;27.00;49.30;;;;;;5008938;28;20234;-42
2022/12/15 07:58:12;;;;;;;3.10;2.00;;;27.00;49.30;;;;;;5010115;28;20200;-39
2022/12/15 08:00:43;;;;;;;3.05;1.90;;;27.00;49.30;;;;;;5011090;28;20204;-39
2022/12/15 08:03:14;;;;;;;1.98;1.50;;;26.90;49.30;;;;;;5010819;28;20226;-38
2022/12/15 08:05:45;;;;;;;2.45;1.90;;;26.90;49.30;;;;;;5009950;28;20219;-38
2022/12/15 08:08:17;;;;;;;2.45;1.77;;;27.00;49.40;;;;;;5009705;28;20203;-38
2022/12/15 08:10:47;;;;;;;2.72;1.85;;;26.90;49.30;;;;;;5010378;28;20201;-38
2022/12/15 08:13:20;;;;;;;2.40;1.80;;;26.90;49.40;;;;;;5010498;28;20204;-38
2022/12/15 08:15:55;;;;;;;2.55;1.80;;;26.90;49.30;;;;;;5010101;28;20274;-38
2022/12/15 08:18:26;;;;;;;2.40;1.73;;;26.90;49.40;;;;;;5010223;28;20259;-38
2022/12/15 08:20:57;;;;;;;2.00;1.60;;;26.90;50.00;;;;;;5008193;28;20205;-38
2022/12/15 08:23:28;;;;;;;2.55;1.80;;;26.80;49.30;;;;;;5005098;28;20205;-37
2022/12/15 08:26:06;;;;;;;2.35;1.80;;;26.80;49.30;;;;;;5020791;28;20225;-39
2022/12/15 08:28:40;;;;;;;3.03;1.67;;;26.80;49.30;;;;;;5009767;28;20300;-38
2022/12/15 08:31:12;;;;;;;2.20;1.60;;;26.70;49.30;;;;;;5009863;28;20197;-38
2022/12/15 08:33:43;;;;;;;2.33;1.85;;;26.70;49.30;;;;;;5009719;28;20205;-41
2022/12/15 08:36:16;;;;;;;2.05;1.58;;;26.70;49.30;;;;;;5010081;28;20225;-39
2022/12/15 08:38:48;;;;;;;2.47;1.73;;;26.70;49.40;;;;;;5010185;28;20656;-39
2022/12/15 08:41:21;;;;;;;11.82;7.75;;;26.70;49.40;;;;;;5009744;28;20212;-38
2022/12/15 08:43:54;;;;;;;17.70;9.57;;;26.70;49.60;;;;;;5010390;28;20201;-40
2022/12/15 08:46:26;;;;;;;15.35;8.57;;;26.60;49.90;;;;;;5028034;28;20220;-41
2022/12/15 08:48:57;;;;;;;10.88;6.68;;;26.60;50.00;;;;;;5029907;28;20576;-39
2022/12/15 08:51:30;;;;;;;13.07;7.20;;;26.50;50.00;;;;;;5012969;28;20556;-38
2022/12/15 08:54:02;;;;;;;12.63;6.75;;;26.50;50.00;;;;;;5013072;28;20228;-41
2022/12/15 08:56:33;;;;;;;10.60;7.22;;;26.50;50.00;;;;;;5000393;28;20685;-39
2022/12/15 08:59:06;;;;;;;10.38;6.97;;;26.50;50.00;;;;;;4994648;28;20208;-38
2022/12/15 09:01:39;;;;;;;9.45;6.38;;;26.50;50.00;;;;;;5003223;28;20198;-40
2022/12/15 09:04:09;;;;;;;9.15;6.75;;;26.40;50.00;;;;;;5028442;28;20200;-41
2022/12/15 09:06:40;;;;;;;9.75;6.53;;;26.40;50.00;;;;;;5019750;28;20224;-39
2022/12/15 09:09:12;;;;;;;12.95;6.90;;;26.40;50.00;;;;;;5013930;28;20207;-44
2022/12/15 09:11:43;;;;;;;10.63;6.88;;;26.30;49.90;;;;;;5012970;28;20570;-46
2022/12/15 09:14:16;;;;;;;10.77;7.05;;;26.40;50.00;;;;;;5002454;28;20226;-49
2022/12/15 09:16:47;;;;;;;9.80;5.90;;;26.30;49.90;;;;;;5009188;28;20212;-41
2022/12/15 09:19:18;;;;;;;9.27;6.35;;;26.30;49.90;;;;;;5013112;28;20219;-42
2022/12/15 09:21:48;;;;;;;9.23;6.38;;;26.30;49.90;;;;;;5012889;28;20267;-38
2022/12/15 09:24:19;;;;;;;8.65;6.20;;;26.30;49.90;;;;;;5013331;28;20205;-39
2022/12/15 09:26:50;;;;;;;8.50;6.32;;;26.30;49.90;;;;;;5012416;28;20223;-38
2022/12/15 09:29:22;;;;;;;8.55;5.88;;;26.20;49.80;;;;;;5012612;28;20255;-44
2022/12/15 09:31:53;;;;;;;10.90;6.30;;;26.20;49.80;;;;;;5012543;28;20201;-41
2022/12/15 09:34:24;;;;;;;8.32;6.43;;;26.20;49.80;;;;;;5012687;28;20216;-47
2022/12/15 09:36:55;;;;;;;8.68;5.97;;;26.20;49.80;;;;;;5012384;28;20239;-47
2022/12/15 09:39:26;;;;;;;7.68;5.75;;;26.20;49.80;;;;;;5012950;28;20901;-44
2022/12/15 09:42:00;;;;;;;7.97;5.80;;;26.20;49.80;;;;;;5012252;28;20212;-46
2022/12/15 09:44:34;;;;;;;8.50;6.00;;;26.10;49.80;;;;;;5012533;28;20201;-48
2022/12/15 09:47:14;;;;;;;7.80;5.63;;;26.10;49.80;;;;;;5012409;28;20216;-48
2022/12/15 09:49:56;;;;;;;9.15;6.25;;;26.10;49.80;;;;;;5010387;28;20197;-40
2022/12/15 09:52:30;;;;;;;8.25;5.82;;;26.10;49.80;;;;;;4999063;28;20212;-49
2022/12/15 09:55:02;;;;;;;7.78;5.22;;;26.00;49.80;;;;;;5011898;28;20240;-40
2022/12/15 09:57:41;;;;;;;8.75;6.35;;;26.00;49.80;;;;;;4994687;28;20759;-45
2022/12/15 10:00:23;;;;;;;8.95;6.20;;;26.00;49.80;;;;;;5004127;28;20199;-42
2022/12/15 10:03:30;;;;;;;6.72;5.60;;;26.00;49.80;;;;;;5011829;28;20208;-40
2022/12/15 10:06:09;;;;;;;8.65;5.75;;;26.00;49.80;;;;;;5010497;28;20239;-44
2022/12/15 10:08:42;;;;;;;7.47;5.20;;;25.90;49.70;;;;;;5012024;28;20197;-41
2022/12/15 10:11:24;;;;;;;8.30;5.20;;;25.90;49.70;;;;;;5011828;28;20197;-39
2022/12/15 10:13:59;;;;;;;9.27;5.53;;;25.90;49.70;;;;;;5012155;28;20200;-42
2022/12/15 10:16:37;;;;;;;7.75;5.32;;;25.80;49.70;;;;;;5010388;28;20213;-40
2022/12/15 10:19:15;;;;;;;7.18;5.07;;;25.80;49.80;;;;;;4992598;28;20654;-39
2022/12/15 10:21:46;;;;;;;8.02;5.35;;;25.80;49.80;;;;;;5004627;28;20204;-39
2022/12/15 10:24:21;;;;;;;7.85;5.15;;;25.80;49.80;;;;;;5011653;28;20283;-44
2022/12/15 10:27:08;;;;;;;8.07;6.03;;;25.80;49.80;;;;;;5011822;28;20208;-44
2022/12/15 10:29:45;;;;;;;7.80;5.10;;;25.80;49.80;;;;;;5011717;28;20197;-41
2022/12/15 10:32:25;;;;;;;8.80;5.18;;;25.70;49.70;;;;;;5012019;28;20215;-38
2022/12/15 10:34:55;;;;;;;7.30;5.10;;;25.70;49.70;;;;;;5011965;28;20224;-38
2022/12/15 10:37:26;;;;;;;6.20;5.25;;;25.70;49.70;;;;;;5014146;28;20706;-43
2022/12/15 10:39:57;;;;;;;6.80;4.82;;;25.60;49.70;;;;;;5011895;28;20196;-45
2022/12/15 10:42:29;;;;;;;6.45;5.35;;;25.60;49.70;;;;;;5011202;28;20559;-38
2022/12/15 10:45:00;;;;;;;6.28;4.70;;;25.60;49.70;;;;;;5011111;28;20200;-38
2022/12/15 10:47:33;;;;;;;5.55;4.65;;;25.60;49.70;;;;;;5011112;28;20220;-43
2022/12/15 10:50:19;;;;;;;7.25;4.97;;;25.60;49.80;;;;;;5011006;28;20201;-38
2022/12/15 10:52:49;;;;;;;6.90;5.07;;;25.50;49.80;;;;;;5011543;28;20200;-38
2022/12/15 10:55:37;;;;;;;8.20;5.15;;;25.50;49.80;;;;;;5011453;28;20228;-38
2022/12/15 10:58:19;;;;;;;6.28;4.30;;;25.50;49.80;;;;;;5028565;28;20600;-38
2022/12/15 11:01:05;;;;;;;6.72;4.53;;;25.50;49.80;;;;;;5028181;28;20184;-38
2022/12/15 11:03:41;;;;;;;6.68;4.75;;;25.50;49.80;;;;;;5011249;28;20207;-42
2022/12/15 11:06:18;;;;;;;5.70;4.40;;;25.50;49.80;;;;;;5011082;28;20220;-38
2022/12/15 11:08:50;;;;;;;5.97;4.88;;;25.40;49.70;;;;;;5011418;28;20197;-40
2022/12/15 11:14:22;;;;;;;5.57;4.65;;;25.40;49.80;;;;;;5005964;28;20207;-39
2022/12/15 11:16:56;;;;;;;6.00;4.38;;;25.30;49.70;;;;;;5016000;28;20251;-39
2022/12/15 11:19:39;;;;;;;6.55;4.63;;;25.30;49.80;;;;;;5006947;28;20644;-38
2022/12/15 11:22:19;;;;;;;6.00;4.40;;;25.30;49.90;;;;;;5009106;28;20699;-38
2022/12/15 11:24:55;;;;;;;7.22;4.63;;;25.30;49.90;;;;;;5008476;28;20996;-39
2022/12/15 11:27:33;;;;;;;6.15;4.80;;;25.30;49.90;;;;;;5007172;28;20603;-45
2022/12/15 11:30:14;;;;;;;6.20;4.35;;;25.20;49.90;;;;;;5007364;28;20546;-38
2022/12/15 11:32:47;;;;;;;6.00;4.50;;;25.20;49.90;;;;;;5006709;28;20192;-38
2022/12/15 11:35:25;;;;;;;5.40;4.10;;;25.20;49.80;;;;;;5009272;28;20274;-42
2022/12/15 11:38:02;;;;;;;6.45;4.45;;;25.20;49.80;;;;;;5009481;28;20192;-38
2022/12/15 11:40:41;;;;;;;6.13;4.57;;;25.20;49.80;;;;;;5007818;28;20204;-39
2022/12/15 11:43:36;;;;;;;5.22;3.88;;;25.20;49.80;;;;;;5008424;28;20197;-40
2022/12/15 11:46:21;;;;;;;6.68;4.88;;;25.20;49.80;;;;;;5007760;28;20224;-40
2022/12/15 11:49:21;;;;;;;5.72;3.90;;;25.10;49.70;;;;;;5008231;28;20193;-38
2022/12/15 11:52:00;;;;;;;5.22;4.10;;;25.10;49.90;;;;;;5007771;28;20243;-38
2022/12/15 11:54:36;;;;;;;6.03;4.22;;;25.10;49.80;;;;;;5007679;28;20205;-38
2022/12/15 11:57:24;;;;;;;6.60;4.75;;;25.10;49.90;;;;;;5007765;28;20714;-38
2022/12/15 12:00:08;;;;;;;6.97;4.63;;;25.00;49.90;;;;;;5004137;28;20189;-38
2022/12/15 12:02:56;;;;;;;6.10;4.10;;;25.00;50.00;;;;;;4990763;28;20584;-38
2022/12/15 12:05:57;;;;;;;5.47;3.80;;;25.00;50.00;;;;;;5000440;28;20197;-41
2022/12/15 12:08:59;;;;;;;5.85;4.20;;;25.00;50.10;;;;;;4976255;28;20205;-38
2022/12/15 12:11:41;;;;;;;5.65;4.20;;;25.00;50.00;;;;;;5006474;28;20196;-39
2022/12/15 12:14:27;;;;;;;5.40;4.10;;;24.90;50.00;;;;;;5009942;28;20205;-39
2022/12/15 12:17:04;;;;;;;5.03;3.88;;;24.90;50.00;;;;;;5010125;28;20761;-38
2022/12/15 12:19:41;;;;;;;5.43;4.00;;;24.90;50.00;;;;;;4991203;28;20209;-38
2022/12/15 12:22:18;;;;;;;4.97;3.63;;;24.90;50.00;;;;;;4998323;28;20702;-42
2022/12/15 12:24:52;;;;;;;5.53;3.80;;;24.90;50.00;;;;;;5012093;28;20192;-38
2022/12/15 12:27:33;;;;;;;4.47;3.90;;;24.90;50.10;;;;;;5013983;28;20655;-38
2022/12/15 12:30:07;;;;;;;5.05;3.80;;;24.80;50.00;;;;;;5014114;28;20192;-39
2022/12/15 12:32:43;;;;;;;5.32;4.07;;;24.80;50.10;;;;;;5013376;28;20231;-38
2022/12/15 12:35:21;;;;;;;4.53;3.80;;;24.80;50.10;;;;;;5013370;28;20228;-40
2022/12/15 12:37:57;;;;;;;4.95;3.70;;;24.80;50.20;;;;;;5012907;28;20197;-38
2022/12/15 12:40:38;;;;;;;5.95;3.80;;;24.80;50.20;;;;;;5013713;28;20837;-42
2022/12/15 12:43:12;;;;;;;4.85;3.35;;;24.70;50.10;;;;;;5013279;28;20213;-38
2022/12/15 12:45:51;;;;;;;4.28;3.03;;;24.70;50.10;;;;;;5015750;28;20575;-38
2022/12/15 12:48:27;;;;;;;4.88;3.08;;;24.70;50.10;;;;;;5013330;28;20736;-38
2022/12/15 12:51:25;;;;;;;5.13;3.70;;;24.70;50.00;;;;;;5014074;28;20690;-38
2022/12/15 12:53:56;;;;;;;4.60;3.53;;;24.70;50.10;;;;;;5013847;28;20213;-38
2022/12/15 12:56:42;;;;;;;4.38;3.67;;;24.70;50.00;;;;;;5013338;28;20236;-39
2022/12/15 12:59:40;;;;;;;3.88;3.13;;;24.70;50.10;;;;;;5015589;28;20196;-39
2022/12/15 13:02:55;;;;;;;6.00;3.72;;;24.70;50.10;;;;;;5013407;28;20208;-38
2022/12/15 13:05:31;;;;;;;3.10;2.78;;;24.60;50.10;;;;;;4978414;28;20201;-38
2022/12/15 13:08:30;;;;;;;5.05;3.17;;;24.60;50.10;;;;;;5013144;28;20260;-39
2022/12/15 13:11:38;;;;;;;4.07;3.40;;;24.60;50.20;;;;;;5013037;28;20197;-39
2022/12/15 13:14:17;;;;;;;5.07;3.80;;;24.50;50.20;;;;;;5012559;28;20201;-43
2022/12/15 13:16:51;;;;;;;3.90;3.05;;;24.50;50.20;;;;;;5012470;28;20240;-39
2022/12/15 13:20:01;;;;;;;4.78;3.35;;;24.50;50.20;;;;;;5012888;28;20232;-38
2022/12/15 13:22:35;;;;;;;4.40;3.10;;;24.50;50.30;;;;;;5012754;28;20200;-37
2022/12/15 13:25:27;;;;;;;3.85;2.90;;;24.40;50.20;;;;;;5013238;28;20204;-38
2022/12/15 13:28:02;;;;;;;4.10;3.00;;;24.40;50.20;;;;;;5013395;28;20200;-38
2022/12/15 13:30:33;;;;;;;3.80;3.20;;;24.40;50.20;;;;;;5012763;28;20771;-38
2022/12/15 13:33:20;;;;;;;4.95;2.70;;;24.40;50.20;;;;;;5012206;28;20204;-38
2022/12/15 13:35:51;;;;;;;4.70;3.38;;;24.40;50.20;;;;;;5011872;28;20684;-38
2022/12/15 13:38:42;;;;;;;3.60;2.83;;;24.40;50.30;;;;;;5012226;28;20196;-40
2022/12/15 13:41:26;;;;;;;4.88;3.15;;;24.30;50.20;;;;;;5012751;28;20220;-38
2022/12/15 13:44:00;;;;;;;4.55;3.45;;;24.30;50.30;;;;;;5012795;28;20688;-39
2022/12/15 13:46:34;;;;;;;3.92;3.30;;;24.30;50.30;;;;;;5013269;28;20220;-38
2022/12/15 13:49:15;;;;;;;4.05;3.05;;;24.30;50.30;;;;;;5013153;28;20200;-38
2022/12/15 13:51:47;;;;;;;3.70;2.90;;;24.20;50.30;;;;;;5012346;28;20656;-38
2022/12/15 13:54:21;;;;;;;3.90;2.88;;;24.20;50.30;;;;;;5012623;28;20200;-38
2022/12/15 13:57:03;;;;;;;5.35;3.42;;;24.20;50.40;;;;;;5011897;28;20233;-38
2022/12/15 13:59:42;;;;;;;3.85;3.03;;;24.20;50.30;;;;;;5012236;28;20656;-38
2022/12/15 14:02:28;;;;;;;3.50;2.83;;;24.20;50.30;;;;;;5012541;28;20197;-38
2022/12/15 14:05:20;;;;;;;3.45;2.97;;;24.20;50.30;;;;;;5011827;28;20200;-38
2022/12/15 14:07:57;;;;;;;2.80;2.50;;;24.20;50.30;;;;;;5011995;28;20292;-38
2022/12/15 14:10:31;;;;;;;4.10;3.00;;;24.20;50.30;;;;;;5008954;28;20188;-38
2022/12/15 14:13:09;;;;;;;4.60;3.15;;;24.10;50.30;;;;;;5011794;28;20216;-40
2022/12/15 14:15:44;;;;;;;3.58;2.97;;;24.10;50.40;;;;;;5011544;28;20239;-38
2022/12/15 14:18:29;;;;;;;3.10;2.70;;;24.10;50.40;;;;;;5012121;28;20196;-38
2022/12/15 14:21:03;;;;;;;3.30;2.85;;;24.00;50.40;;;;;;5011672;28;20263;-39
2022/12/15 14:23:42;;;;;;;4.25;2.88;;;24.00;50.40;;;;;;5011366;28;20243;-39
2022/12/15 14:26:15;;;;;;;4.18;2.70;;;24.00;50.40;;;;;;5012250;28;20259;-38
2022/12/15 14:28:47;;;;;;;3.33;2.58;;;24.00;50.40;;;;;;5012394;28;20208;-39
2022/12/15 14:31:21;;;;;;;5.45;3.30;;;24.00;50.40;;;;;;5008469;28;20657;-38
2022/12/15 14:34:02;;;;;;;3.30;2.80;;;24.00;50.50;;;;;;5012289;28;20629;-38
2022/12/15 14:36:37;;;;;;;3.17;2.47;;;23.90;50.40;;;;;;5011820;28;20243;-39
2022/12/15 14:39:14;;;;;;;3.35;2.60;;;23.90;50.40;;;;;;5011856;28;20199;-39
2022/12/15 14:41:49;;;;;;;3.15;2.70;;;23.90;50.40;;;;;;5011222;28;20652;-38
2022/12/15 14:44:25;;;;;;;3.60;2.60;;;23.90;50.40;;;;;;5011175;28;20219;-39
2022/12/15 14:46:55;;;;;;;3.38;2.63;;;23.90;50.40;;;;;;5013516;28;20629;-38
2022/12/15 14:49:29;;;;;;;3.75;2.83;;;23.90;50.40;;;;;;4991999;28;20205;-38
2022/12/15 14:52:04;;;;;;;3.33;2.80;;;23.80;50.40;;;;;;4995310;28;20201;-38
2022/12/15 14:54:37;;;;;;;3.60;2.65;;;23.80;50.50;;;;;;5011629;28;20196;-38
2022/12/15 14:57:17;;;;;;;3.53;2.53;;;23.80;50.50;;;;;;5010515;28;20224;-38
2022/12/15 14:59:50;;;;;;;3.05;2.45;;;23.80;50.40;;;;;;5011036;28;20566;-39
2022/12/15 15:02:23;;;;;;;2.55;2.28;;;23.80;50.50;;;;;;5011422;28;20193;-40
2022/12/15 15:05:03;;;;;;;3.85;2.95;;;23.70;50.40;;;;;;5011300;28;20196;-38
2022/12/15 15:07:39;;;;;;;2.55;2.30;;;23.70;50.50;;;;;;5022931;28;20751;-44
2022/12/15 15:10:24;;;;;;;3.35;2.60;;;23.70;50.50;;;;;;5010865;28;20233;-38
2022/12/15 15:12:55;;;;;;;3.55;2.45;;;23.70;50.40;;;;;;5011085;28;20208;-38
2022/12/15 15:15:28;;;;;;;3.13;2.67;;;23.70;50.50;;;;;;5011361;28;20200;-40
2022/12/15 15:18:00;;;;;;;3.15;2.53;;;23.70;50.50;;;;;;5011532;28;20639;-39
2022/12/15 15:20:34;;;;;;;3.70;2.47;;;23.70;50.50;;;;;;5011305;28;20771;-38
2022/12/15 15:23:18;;;;;;;2.88;2.20;;;23.70;50.50;;;;;;5011246;28;20292;-38
2022/12/15 15:25:53;;;;;;;3.15;2.40;;;23.60;50.40;;;;;;5010886;28;20226;-40
2022/12/15 15:28:29;;;;;;;3.33;2.60;;;23.60;50.40;;;;;;5010971;28;20204;-40
2022/12/15 15:31:05;;;;;;;3.40;2.58;;;23.60;50.50;;;;;;5010499;28;20196;-40
2022/12/15 15:33:35;;;;;;;3.20;2.47;;;23.60;50.50;;;;;;5010576;28;20203;-41
2022/12/15 15:36:12;;;;;;;3.22;2.50;;;23.60;50.50;;;;;;5010647;28;20228;-37
2022/12/15 15:38:46;;;;;;;2.85;2.15;;;23.60;50.50;;;;;;5011271;28;20204;-38
2022/12/15 15:41:19;;;;;;;2.88;2.22;;;23.60;50.50;;;;;;5011271;28;20208;-42
2022/12/15 15:43:50;;;;;;;2.88;2.28;;;23.50;50.50;;;;;;5010776;28;20197;-37
2022/12/15 15:46:24;;;;;;;3.50;2.42;;;23.50;50.50;;;;;;5011357;28;20224;-38
2022/12/15 15:48:57;;;;;;;2.70;2.13;;;23.50;50.50;;;;;;5010828;28;20204;-38
2022/12/15 15:51:30;;;;;;;3.28;2.58;;;23.50;50.50;;;;;;5010301;28;20201;-44